sensor_id;sensor_type;location;lat;lon;timestamp;noise_LAeq;noise_LA_min;noise_LA_max;noise_LA01;noise_LA95
66888;Laerm;67239;51.680;5.976;2023-12-14T00:02:16;54.96;33.31;73.08;;
66888;Laerm;67239;51.680;5.976;2023-12-14T00:05:37;37.25;33.54;45.02;;
66888;Laerm;67239;51.680;5.976;2023-12-14T00:08:42;53.69;33.59;71.35;;
66888;Laerm;67239;51.680;5.976;2023-12-14T00:11:54;64.45;34.13;81.14;;
66888;Laerm;67239;51.680;5.976;2023-12-14T00:14:53;36.76;33.71;40.86;;
66888;Laerm;67239;51.680;5.976;2023-12-14T00:17:46;37.64;33.60;48.82;;
66888;Laerm;67239;51.680;5.976;2023-12-14T00:20:58;56.34;33.11;76.31;;
66888;Laerm;67239;51.680;5.976;2023-12-14T00:23:42;40.15;33.75;46.66;;
66888;Laerm;67239;51.680;5.976;2023-12-14T00:26:09;37.93;33.15;46.25;;
66888;Laerm;67239;51.680;5.976;2023-12-14T00:28:36;36.91;32.77;48.55;;
66888;Laerm;67239;51.680;5.976;2023-12-14T00:31:04;36.54;33.17;45.65;;
66888;Laerm;67239;51.680;5.976;2023-12-14T00:33:31;35.37;32.41;43.56;;
66888;Laerm;67239;51.680;5.976;2023-12-14T00:35:59;35.55;32.57;41.30;;
66888;Laerm;67239;51.680;5.976;2023-12-14T00:38:26;35.37;32.36;41.08;;
66888;Laerm;67239;51.680;5.976;2023-12-14T00:40:53;36.35;33.09;40.46;;
66888;Laerm;67239;51.680;5.976;2023-12-14T00:43:20;36.54;32.97;41.17;;
66888;Laerm;67239;51.680;5.976;2023-12-14T00:45:47;36.90;33.55;45.51;;
66888;Laerm;67239;51.680;5.976;2023-12-14T00:48:14;35.87;32.24;43.07;;
66888;Laerm;67239;51.680;5.976;2023-12-14T00:50:41;36.93;32.96;45.72;;
66888;Laerm;67239;51.680;5.976;2023-12-14T00:53:08;36.53;32.25;43.77;;
66888;Laerm;67239;51.680;5.976;2023-12-14T00:55:35;35.58;32.98;38.51;;
66888;Laerm;67239;51.680;5.976;2023-12-14T00:58:02;37.99;33.18;51.36;;
66888;Laerm;67239;51.680;5.976;2023-12-14T01:00:30;39.00;33.11;54.45;;
66888;Laerm;67239;51.680;5.976;2023-12-14T01:02:58;57.07;33.83;75.22;;
66888;Laerm;67239;51.680;5.976;2023-12-14T01:05:25;41.30;32.33;58.15;;
66888;Laerm;67239;51.680;5.976;2023-12-14T01:07:52;41.44;32.59;58.75;;
66888;Laerm;67239;51.680;5.976;2023-12-14T01:10:19;64.94;32.81;82.97;;
66888;Laerm;67239;51.680;5.976;2023-12-14T01:12:46;40.91;32.10;53.76;;
66888;Laerm;67239;51.680;5.976;2023-12-14T01:15:13;39.46;32.23;55.49;;
66888;Laerm;67239;51.680;5.976;2023-12-14T01:17:40;38.85;32.01;53.15;;
66888;Laerm;67239;51.680;5.976;2023-12-14T01:20:09;38.58;32.11;54.79;;
66888;Laerm;67239;51.680;5.976;2023-12-14T01:22:36;39.26;32.02;55.33;;
66888;Laerm;67239;51.680;5.976;2023-12-14T01:25:04;39.47;32.21;53.79;;
66888;Laerm;67239;51.680;5.976;2023-12-14T01:27:31;39.27;32.45;52.80;;
66888;Laerm;67239;51.680;5.976;2023-12-14T01:29:58;39.07;31.59;54.17;;
66888;Laerm;67239;51.680;5.976;2023-12-14T01:32:26;39.47;31.32;54.64;;
66888;Laerm;67239;51.680;5.976;2023-12-14T01:34:53;39.50;30.96;55.07;;
66888;Laerm;67239;51.680;5.976;2023-12-14T01:37:20;39.35;31.18;54.93;;
66888;Laerm;67239;51.680;5.976;2023-12-14T01:39:47;54.58;31.38;71.16;;
66888;Laerm;67239;51.680;5.976;2023-12-14T01:42:14;39.83;32.00;55.69;;
66888;Laerm;67239;51.680;5.976;2023-12-14T01:44:41;39.71;32.09;55.00;;
66888;Laerm;67239;51.680;5.976;2023-12-14T01:47:08;39.13;31.71;53.88;;
66888;Laerm;67239;51.680;5.976;2023-12-14T01:49:36;53.81;32.53;71.55;;
66888;Laerm;67239;51.680;5.976;2023-12-14T01:52:04;55.53;32.21;71.98;;
66888;Laerm;67239;51.680;5.976;2023-12-14T01:54:31;58.26;32.17;77.77;;
66888;Laerm;67239;51.680;5.976;2023-12-14T01:56:59;42.77;32.04;59.23;;
66888;Laerm;67239;51.680;5.976;2023-12-14T01:59:26;63.76;30.97;82.89;;
66888;Laerm;67239;51.680;5.976;2023-12-14T02:01:56;41.82;32.22;58.81;;
66888;Laerm;67239;51.680;5.976;2023-12-14T02:04:25;40.52;31.98;58.30;;
66888;Laerm;67239;51.680;5.976;2023-12-14T02:06:53;40.30;31.14;58.37;;
66888;Laerm;67239;51.680;5.976;2023-12-14T02:09:20;40.47;32.57;56.54;;
66888;Laerm;67239;51.680;5.976;2023-12-14T02:11:47;41.78;33.35;59.66;;
66888;Laerm;67239;51.680;5.976;2023-12-14T02:14:14;41.95;34.04;60.65;;
66888;Laerm;67239;51.680;5.976;2023-12-14T02:16:41;43.19;34.08;60.46;;
66888;Laerm;67239;51.680;5.976;2023-12-14T02:19:09;39.92;33.29;59.34;;
66888;Laerm;67239;51.680;5.976;2023-12-14T02:21:36;39.95;32.99;62.08;;
66888;Laerm;67239;51.680;5.976;2023-12-14T02:24:03;40.01;33.34;54.18;;
66888;Laerm;67239;51.680;5.976;2023-12-14T02:26:30;39.51;32.18;53.32;;
66888;Laerm;67239;51.680;5.976;2023-12-14T02:28:57;39.44;32.20;53.82;;
66888;Laerm;67239;51.680;5.976;2023-12-14T02:31:25;39.66;32.10;55.69;;
66888;Laerm;67239;51.680;5.976;2023-12-14T02:33:52;39.27;31.90;54.90;;
66888;Laerm;67239;51.680;5.976;2023-12-14T02:36:19;40.17;32.47;55.48;;
66888;Laerm;67239;51.680;5.976;2023-12-14T02:38:46;43.67;32.50;60.01;;
66888;Laerm;67239;51.680;5.976;2023-12-14T02:41:14;56.16;32.18;73.34;;
66888;Laerm;67239;51.680;5.976;2023-12-14T02:43:41;41.17;32.82;57.61;;
66888;Laerm;67239;51.680;5.976;2023-12-14T02:46:08;40.68;33.02;59.18;;
66888;Laerm;67239;51.680;5.976;2023-12-14T02:48:36;42.37;33.43;57.18;;
66888;Laerm;67239;51.680;5.976;2023-12-14T02:51:03;41.98;33.17;58.45;;
66888;Laerm;67239;51.680;5.976;2023-12-14T02:53:30;63.29;35.50;79.70;;
66888;Laerm;67239;51.680;5.976;2023-12-14T02:56:01;45.16;32.70;60.34;;
66888;Laerm;67239;51.680;5.976;2023-12-14T02:58:29;41.40;32.83;54.64;;
66888;Laerm;67239;51.680;5.976;2023-12-14T03:00:56;57.36;34.76;76.07;;
66888;Laerm;67239;51.680;5.976;2023-12-14T03:03:23;59.31;32.60;79.19;;
66888;Laerm;67239;51.680;5.976;2023-12-14T03:05:50;40.91;32.60;56.19;;
66888;Laerm;67239;51.680;5.976;2023-12-14T03:08:17;57.82;32.97;77.28;;
66888;Laerm;67239;51.680;5.976;2023-12-14T03:10:44;63.75;32.52;83.76;;
66888;Laerm;67239;51.680;5.976;2023-12-14T03:13:11;37.69;33.11;50.00;;
66888;Laerm;67239;51.680;5.976;2023-12-14T03:15:38;37.85;32.24;54.38;;
66888;Laerm;67239;51.680;5.976;2023-12-14T03:18:05;34.43;31.48;43.55;;
66888;Laerm;67239;51.680;5.976;2023-12-14T03:20:33;51.48;31.63;69.16;;
66888;Laerm;67239;51.680;5.976;2023-12-14T03:23:00;37.80;31.88;52.93;;
66888;Laerm;67239;51.680;5.976;2023-12-14T03:25:27;39.33;33.82;50.54;;
66888;Laerm;67239;51.680;5.976;2023-12-14T03:27:54;37.04;32.45;46.96;;
66888;Laerm;67239;51.680;5.976;2023-12-14T03:30:21;38.26;32.03;52.75;;
66888;Laerm;67239;51.680;5.976;2023-12-14T03:32:48;38.40;31.86;49.13;;
66888;Laerm;67239;51.680;5.976;2023-12-14T03:35:15;37.67;32.49;51.70;;
66888;Laerm;67239;51.680;5.976;2023-12-14T03:37:43;39.30;34.53;51.00;;
66888;Laerm;67239;51.680;5.976;2023-12-14T03:40:10;40.42;35.55;53.36;;
66888;Laerm;67239;51.680;5.976;2023-12-14T03:42:37;61.47;33.15;79.56;;
66888;Laerm;67239;51.680;5.976;2023-12-14T03:45:05;39.97;33.33;49.48;;
66888;Laerm;67239;51.680;5.976;2023-12-14T03:47:32;37.74;32.49;53.23;;
66888;Laerm;67239;51.680;5.976;2023-12-14T03:49:59;56.52;34.39;77.41;;
66888;Laerm;67239;51.680;5.976;2023-12-14T03:52:26;62.04;33.33;78.26;;
66888;Laerm;67239;51.680;5.976;2023-12-14T03:54:54;54.88;33.91;73.00;;
66888;Laerm;67239;51.680;5.976;2023-12-14T03:57:22;50.90;33.19;69.37;;
66888;Laerm;67239;51.680;5.976;2023-12-14T03:59:49;53.70;34.55;70.26;;
66888;Laerm;67239;51.680;5.976;2023-12-14T04:02:16;59.66;33.76;75.87;;
66888;Laerm;67239;51.680;5.976;2023-12-14T04:04:43;44.07;38.55;55.02;;
66888;Laerm;67239;51.680;5.976;2023-12-14T04:07:10;44.68;38.87;63.22;;
66888;Laerm;67239;51.680;5.976;2023-12-14T04:09:37;64.98;38.37;84.79;;
66888;Laerm;67239;51.680;5.976;2023-12-14T04:12:05;45.80;40.01;57.55;;
66888;Laerm;67239;51.680;5.976;2023-12-14T04:14:32;64.47;38.42;83.68;;
66888;Laerm;67239;51.680;5.976;2023-12-14T04:16:59;41.62;34.72;52.32;;
66888;Laerm;67239;51.680;5.976;2023-12-14T04:19:26;65.55;35.52;80.14;;
66888;Laerm;67239;51.680;5.976;2023-12-14T04:21:53;67.25;36.93;83.01;;
66888;Laerm;67239;51.680;5.976;2023-12-14T04:24:20;62.71;35.18;83.53;;
66888;Laerm;67239;51.680;5.976;2023-12-14T04:26:49;61.00;33.70;79.66;;
66888;Laerm;67239;51.680;5.976;2023-12-14T04:29:16;61.62;33.89;79.60;;
66888;Laerm;67239;51.680;5.976;2023-12-14T04:31:43;62.78;36.90;76.00;;
66888;Laerm;67239;51.680;5.976;2023-12-14T04:34:10;60.01;34.66;77.82;;
66888;Laerm;67239;51.680;5.976;2023-12-14T04:36:42;63.51;34.83;82.63;;
66888;Laerm;67239;51.680;5.976;2023-12-14T04:39:09;61.06;37.07;74.94;;
66888;Laerm;67239;51.680;5.976;2023-12-14T04:41:37;62.36;36.89;77.90;;
66888;Laerm;67239;51.680;5.976;2023-12-14T04:44:04;63.86;39.57;77.88;;
66888;Laerm;67239;51.680;5.976;2023-12-14T04:46:31;67.44;39.43;84.18;;
66888;Laerm;67239;51.680;5.976;2023-12-14T04:48:58;66.25;35.41;80.82;;
66888;Laerm;67239;51.680;5.976;2023-12-14T04:51:25;61.47;39.57;74.54;;
66888;Laerm;67239;51.680;5.976;2023-12-14T04:53:53;64.13;38.03;81.25;;
66888;Laerm;67239;51.680;5.976;2023-12-14T04:56:20;63.39;36.41;79.16;;
66888;Laerm;67239;51.680;5.976;2023-12-14T04:58:47;64.56;36.66;78.06;;
66888;Laerm;67239;51.680;5.976;2023-12-14T05:01:14;64.73;36.30;80.24;;
66888;Laerm;67239;51.680;5.976;2023-12-14T05:03:41;67.52;41.04;82.23;;
66888;Laerm;67239;51.680;5.976;2023-12-14T05:06:08;67.31;41.87;83.63;;
66888;Laerm;67239;51.680;5.976;2023-12-14T05:08:36;68.54;40.79;82.67;;
66888;Laerm;67239;51.680;5.976;2023-12-14T05:11:03;59.38;39.38;76.45;;
66888;Laerm;67239;51.680;5.976;2023-12-14T05:13:31;63.69;39.01;78.62;;
66888;Laerm;67239;51.680;5.976;2023-12-14T05:15:58;69.12;43.47;82.14;;
66888;Laerm;67239;51.680;5.976;2023-12-14T05:18:25;66.35;40.01;83.63;;
66888;Laerm;67239;51.680;5.976;2023-12-14T05:20:52;65.04;40.06;81.16;;
66888;Laerm;67239;51.680;5.976;2023-12-14T05:23:20;66.09;40.36;78.61;;
66888;Laerm;67239;51.680;5.976;2023-12-14T05:25:47;61.60;42.29;76.45;;
66888;Laerm;67239;51.680;5.976;2023-12-14T05:28:14;59.09;38.11;78.31;;
66888;Laerm;67239;51.680;5.976;2023-12-14T05:30:41;70.70;42.23;84.77;;
66888;Laerm;67239;51.680;5.976;2023-12-14T05:33:09;69.28;43.55;83.01;;
66888;Laerm;67239;51.680;5.976;2023-12-14T05:35:39;67.36;43.65;83.26;;
66888;Laerm;67239;51.680;5.976;2023-12-14T05:38:06;68.88;43.50;84.14;;
66888;Laerm;67239;51.680;5.976;2023-12-14T05:40:33;62.75;39.25;79.22;;
66888;Laerm;67239;51.680;5.976;2023-12-14T05:43:00;68.68;42.90;84.62;;
66888;Laerm;67239;51.680;5.976;2023-12-14T05:45:27;68.61;46.89;81.32;;
66888;Laerm;67239;51.680;5.976;2023-12-14T05:47:57;67.06;43.90;80.59;;
66888;Laerm;67239;51.680;5.976;2023-12-14T05:50:25;67.32;44.00;82.71;;
66888;Laerm;67239;51.680;5.976;2023-12-14T05:52:52;69.95;45.28;86.41;;
66888;Laerm;67239;51.680;5.976;2023-12-14T05:55:19;65.84;47.35;79.58;;
66888;Laerm;67239;51.680;5.976;2023-12-14T05:57:49;67.18;45.46;79.82;;
66888;Laerm;67239;51.680;5.976;2023-12-14T06:00:18;68.41;44.58;81.81;;
66888;Laerm;67239;51.680;5.976;2023-12-14T06:02:45;67.48;45.82;83.96;;
66888;Laerm;67239;51.680;5.976;2023-12-14T06:05:12;67.32;44.48;83.17;;
66888;Laerm;67239;51.680;5.976;2023-12-14T06:07:40;68.49;45.12;82.01;;
66888;Laerm;67239;51.680;5.976;2023-12-14T06:10:07;69.71;46.24;84.07;;
66888;Laerm;67239;51.680;5.976;2023-12-14T06:12:34;67.23;43.15;78.77;;
66888;Laerm;67239;51.680;5.976;2023-12-14T06:15:02;68.32;43.53;83.11;;
66888;Laerm;67239;51.680;5.976;2023-12-14T06:17:29;67.95;44.96;81.36;;
66888;Laerm;67239;51.680;5.976;2023-12-14T06:19:57;66.72;41.60;81.20;;
66888;Laerm;67239;51.680;5.976;2023-12-14T06:22:24;68.67;44.93;83.91;;
66888;Laerm;67239;51.680;5.976;2023-12-14T06:24:53;67.12;41.99;82.13;;
66888;Laerm;67239;51.680;5.976;2023-12-14T06:27:20;69.22;45.26;81.96;;
66888;Laerm;67239;51.680;5.976;2023-12-14T06:29:50;71.88;46.05;85.13;;
66888;Laerm;67239;51.680;5.976;2023-12-14T06:32:17;69.10;45.69;82.82;;
66888;Laerm;67239;51.680;5.976;2023-12-14T06:34:45;68.90;44.40;81.27;;
66888;Laerm;67239;51.680;5.976;2023-12-14T06:37:13;65.68;42.32;81.59;;
66888;Laerm;67239;51.680;5.976;2023-12-14T06:39:43;71.22;42.68;88.93;;
66888;Laerm;67239;51.680;5.976;2023-12-14T06:42:10;65.44;43.67;78.15;;
66888;Laerm;67239;51.680;5.976;2023-12-14T06:44:39;66.44;42.60;78.83;;
66888;Laerm;67239;51.680;5.976;2023-12-14T06:47:06;68.82;44.64;83.09;;
66888;Laerm;67239;51.680;5.976;2023-12-14T06:49:33;68.10;44.64;78.91;;
66888;Laerm;67239;51.680;5.976;2023-12-14T06:52:00;69.99;45.61;82.11;;
66888;Laerm;67239;51.680;5.976;2023-12-14T06:54:28;70.19;48.95;84.20;;
66888;Laerm;67239;51.680;5.976;2023-12-14T06:56:55;67.65;43.29;83.46;;
66888;Laerm;67239;51.680;5.976;2023-12-14T06:59:23;70.14;48.70;83.22;;
66888;Laerm;67239;51.680;5.976;2023-12-14T07:01:50;71.18;46.27;82.43;;
66888;Laerm;67239;51.680;5.976;2023-12-14T07:04:17;68.45;47.92;81.06;;
66888;Laerm;67239;51.680;5.976;2023-12-14T07:06:53;69.61;51.86;81.92;;
66888;Laerm;67239;51.680;5.976;2023-12-14T07:09:20;69.63;46.56;82.48;;
66888;Laerm;67239;51.680;5.976;2023-12-14T07:11:47;69.06;46.52;81.70;;
66888;Laerm;67239;51.680;5.976;2023-12-14T07:14:14;67.36;46.68;82.44;;
66888;Laerm;67239;51.680;5.976;2023-12-14T07:16:44;68.50;46.21;86.30;;
66888;Laerm;67239;51.680;5.976;2023-12-14T07:19:11;70.37;49.22;83.04;;
66888;Laerm;67239;51.680;5.976;2023-12-14T07:21:38;70.74;50.94;83.71;;
66888;Laerm;67239;51.680;5.976;2023-12-14T07:24:06;72.36;51.87;82.18;;
66888;Laerm;67239;51.680;5.976;2023-12-14T07:26:33;71.05;50.28;82.92;;
66888;Laerm;67239;51.680;5.976;2023-12-14T07:29:00;72.88;49.95;84.44;;
66888;Laerm;67239;51.680;5.976;2023-12-14T07:31:27;69.52;48.08;80.57;;
66888;Laerm;67239;51.680;5.976;2023-12-14T07:33:56;71.24;51.60;83.86;;
66888;Laerm;67239;51.680;5.976;2023-12-14T07:36:23;70.59;49.24;85.16;;
66888;Laerm;67239;51.680;5.976;2023-12-14T07:38:50;69.98;45.32;86.14;;
66888;Laerm;67239;51.680;5.976;2023-12-14T07:41:21;70.72;50.12;83.03;;
66888;Laerm;67239;51.680;5.976;2023-12-14T07:43:53;71.40;45.14;85.43;;
66888;Laerm;67239;51.680;5.976;2023-12-14T07:46:21;68.17;42.92;79.14;;
66888;Laerm;67239;51.680;5.976;2023-12-14T07:48:48;69.13;44.70;82.85;;
66888;Laerm;67239;51.680;5.976;2023-12-14T07:51:15;68.80;46.64;79.41;;
66888;Laerm;67239;51.680;5.976;2023-12-14T07:53:42;70.97;50.18;82.17;;
66888;Laerm;67239;51.680;5.976;2023-12-14T07:56:09;69.64;49.65;81.43;;
66888;Laerm;67239;51.680;5.976;2023-12-14T07:58:36;71.12;49.65;83.46;;
66888;Laerm;67239;51.680;5.976;2023-12-14T08:01:04;70.01;46.83;82.40;;
66888;Laerm;67239;51.680;5.976;2023-12-14T08:03:31;72.41;49.88;83.20;;
66888;Laerm;67239;51.680;5.976;2023-12-14T08:05:58;68.00;43.21;82.02;;
66888;Laerm;67239;51.680;5.976;2023-12-14T08:08:25;70.40;45.42;81.38;;
66888;Laerm;67239;51.680;5.976;2023-12-14T08:10:53;73.61;51.52;88.90;;
66888;Laerm;67239;51.680;5.976;2023-12-14T08:13:20;69.40;42.10;80.87;;
66888;Laerm;67239;51.680;5.976;2023-12-14T08:15:47;67.05;41.12;80.07;;
66888;Laerm;67239;51.680;5.976;2023-12-14T08:18:14;69.98;45.57;81.52;;
66888;Laerm;67239;51.680;5.976;2023-12-14T08:20:41;69.56;44.01;82.43;;
66888;Laerm;67239;51.680;5.976;2023-12-14T08:23:08;67.87;42.87;82.14;;
66888;Laerm;67239;51.680;5.976;2023-12-14T08:25:35;71.62;48.47;81.32;;
66888;Laerm;67239;51.680;5.976;2023-12-14T08:28:03;71.64;49.08;83.29;;
66888;Laerm;67239;51.680;5.976;2023-12-14T08:30:31;72.48;47.73;89.62;;
66888;Laerm;67239;51.680;5.976;2023-12-14T08:32:58;68.30;47.37;78.81;;
66888;Laerm;67239;51.680;5.976;2023-12-14T08:35:26;69.46;42.39;81.21;;
66888;Laerm;67239;51.680;5.976;2023-12-14T08:37:53;69.33;47.80;80.17;;
66888;Laerm;67239;51.680;5.976;2023-12-14T08:40:20;70.32;43.95;83.62;;
66888;Laerm;67239;51.680;5.976;2023-12-14T08:42:47;69.40;46.08;80.48;;
66888;Laerm;67239;51.680;5.976;2023-12-14T08:45:14;69.82;46.14;82.31;;
66888;Laerm;67239;51.680;5.976;2023-12-14T08:47:41;70.59;49.16;82.80;;
66888;Laerm;67239;51.680;5.976;2023-12-14T08:50:09;69.73;46.53;82.99;;
66888;Laerm;67239;51.680;5.976;2023-12-14T08:52:37;69.57;47.24;80.76;;
66888;Laerm;67239;51.680;5.976;2023-12-14T08:55:05;69.01;44.05;84.06;;
66888;Laerm;67239;51.680;5.976;2023-12-14T08:57:33;68.81;47.16;79.08;;
66888;Laerm;67239;51.680;5.976;2023-12-14T09:00:00;63.54;41.17;77.44;;
66888;Laerm;67239;51.680;5.976;2023-12-14T09:02:27;68.05;42.76;79.68;;
66888;Laerm;67239;51.680;5.976;2023-12-14T09:04:54;69.58;49.85;81.99;;
66888;Laerm;67239;51.680;5.976;2023-12-14T09:07:21;71.12;51.51;85.14;;
66888;Laerm;67239;51.680;5.976;2023-12-14T09:09:49;69.84;44.16;79.70;;
66888;Laerm;67239;51.680;5.976;2023-12-14T09:12:16;70.01;48.45;84.26;;
66888;Laerm;67239;51.680;5.976;2023-12-14T09:14:43;70.95;47.76;82.34;;
66888;Laerm;67239;51.680;5.976;2023-12-14T09:17:10;67.92;48.38;81.47;;
66888;Laerm;67239;51.680;5.976;2023-12-14T09:19:37;66.86;48.02;80.43;;
66888;Laerm;67239;51.680;5.976;2023-12-14T09:22:04;65.98;47.17;82.34;;
66888;Laerm;67239;51.680;5.976;2023-12-14T09:24:31;69.15;47.73;83.70;;
66888;Laerm;67239;51.680;5.976;2023-12-14T09:26:58;73.32;46.91;94.76;;
66888;Laerm;67239;51.680;5.976;2023-12-14T09:29:25;68.02;46.42;81.02;;
66888;Laerm;67239;51.680;5.976;2023-12-14T09:31:52;67.87;46.77;81.72;;
66888;Laerm;67239;51.680;5.976;2023-12-14T09:34:20;68.41;46.76;82.07;;
66888;Laerm;67239;51.680;5.976;2023-12-14T09:36:47;67.11;45.58;80.54;;
66888;Laerm;67239;51.680;5.976;2023-12-14T09:39:14;70.52;52.83;83.08;;
66888;Laerm;67239;51.680;5.976;2023-12-14T09:41:42;66.74;45.72;82.18;;
66888;Laerm;67239;51.680;5.976;2023-12-14T09:44:09;67.41;46.80;79.41;;
66888;Laerm;67239;51.680;5.976;2023-12-14T09:46:38;66.66;46.97;78.35;;
66888;Laerm;67239;51.680;5.976;2023-12-14T09:49:05;66.52;44.85;79.02;;
66888;Laerm;67239;51.680;5.976;2023-12-14T09:51:35;67.40;45.73;81.03;;
66888;Laerm;67239;51.680;5.976;2023-12-14T09:54:03;70.56;49.30;82.18;;
66888;Laerm;67239;51.680;5.976;2023-12-14T09:56:30;68.69;45.21;85.04;;
66888;Laerm;67239;51.680;5.976;2023-12-14T09:58:57;71.43;49.30;85.11;;
66888;Laerm;67239;51.680;5.976;2023-12-14T10:01:27;70.80;46.23;84.83;;
66888;Laerm;67239;51.680;5.976;2023-12-14T10:04:11;64.70;44.57;82.47;;
66888;Laerm;67239;51.680;5.976;2023-12-14T10:06:41;65.87;44.17;78.23;;
66888;Laerm;67239;51.680;5.976;2023-12-14T10:09:10;70.53;44.70;83.62;;
66888;Laerm;67239;51.680;5.976;2023-12-14T10:11:41;70.21;49.45;82.68;;
66888;Laerm;67239;51.680;5.976;2023-12-14T10:14:23;66.58;45.90;79.05;;
66888;Laerm;67239;51.680;5.976;2023-12-14T10:16:52;66.62;47.51;80.47;;
66888;Laerm;67239;51.680;5.976;2023-12-14T10:19:29;68.97;47.56;81.93;;
66888;Laerm;67239;51.680;5.976;2023-12-14T10:21:56;70.24;47.77;82.75;;
66888;Laerm;67239;51.680;5.976;2023-12-14T10:24:23;70.09;45.31;81.17;;
66888;Laerm;67239;51.680;5.976;2023-12-14T10:26:51;68.60;47.00;81.75;;
66888;Laerm;67239;51.680;5.976;2023-12-14T10:29:18;69.36;44.53;82.97;;
66888;Laerm;67239;51.680;5.976;2023-12-14T10:31:47;66.48;43.46;81.96;;
66888;Laerm;67239;51.680;5.976;2023-12-14T10:34:15;70.39;46.70;82.45;;
66888;Laerm;67239;51.680;5.976;2023-12-14T10:36:45;67.34;44.59;79.81;;
66888;Laerm;67239;51.680;5.976;2023-12-14T10:39:15;66.93;43.71;81.12;;
66888;Laerm;67239;51.680;5.976;2023-12-14T10:41:47;62.55;44.20;78.21;;
66888;Laerm;67239;51.680;5.976;2023-12-14T10:44:27;68.48;46.74;80.28;;
66888;Laerm;67239;51.680;5.976;2023-12-14T10:47:15;69.15;42.62;85.07;;
66888;Laerm;67239;51.680;5.976;2023-12-14T10:49:47;69.27;49.18;85.53;;
66888;Laerm;67239;51.680;5.976;2023-12-14T10:52:19;70.00;45.69;80.98;;
66888;Laerm;67239;51.680;5.976;2023-12-14T10:54:52;70.09;48.46;82.39;;
66888;Laerm;67239;51.680;5.976;2023-12-14T10:57:22;69.74;43.47;86.96;;
66888;Laerm;67239;51.680;5.976;2023-12-14T10:59:49;70.33;51.10;81.18;;
66888;Laerm;67239;51.680;5.976;2023-12-14T11:02:17;69.53;47.44;83.45;;
66888;Laerm;67239;51.680;5.976;2023-12-14T11:05:03;71.25;50.27;83.54;;
66888;Laerm;67239;51.680;5.976;2023-12-14T11:07:51;66.80;45.37;81.92;;
66888;Laerm;67239;51.680;5.976;2023-12-14T11:10:26;69.56;49.95;84.34;;
66888;Laerm;67239;51.680;5.976;2023-12-14T11:13:25;65.51;42.49;77.68;;
66888;Laerm;67239;51.680;5.976;2023-12-14T11:16:38;68.13;43.95;80.32;;
66888;Laerm;67239;51.680;5.976;2023-12-14T11:19:53;67.33;42.74;81.78;;
66888;Laerm;67239;51.680;5.976;2023-12-14T11:22:26;70.17;50.19;81.52;;
66888;Laerm;67239;51.680;5.976;2023-12-14T11:24:55;67.86;45.73;78.49;;
66888;Laerm;67239;51.680;5.976;2023-12-14T11:27:27;68.68;44.75;83.36;;
66888;Laerm;67239;51.680;5.976;2023-12-14T11:29:56;68.21;46.83;81.00;;
66888;Laerm;67239;51.680;5.976;2023-12-14T11:32:25;66.19;41.19;83.94;;
66888;Laerm;67239;51.680;5.976;2023-12-14T11:34:52;69.88;46.48;83.16;;
66888;Laerm;67239;51.680;5.976;2023-12-14T11:37:19;69.69;46.70;80.09;;
66888;Laerm;67239;51.680;5.976;2023-12-14T11:39:50;67.94;43.23;82.27;;
66888;Laerm;67239;51.680;5.976;2023-12-14T11:42:18;70.13;45.39;80.28;;
66888;Laerm;67239;51.680;5.976;2023-12-14T11:44:45;64.85;41.29;77.20;;
66888;Laerm;67239;51.680;5.976;2023-12-14T11:47:12;70.12;46.26;83.49;;
66888;Laerm;67239;51.680;5.976;2023-12-14T11:49:43;66.48;48.59;77.03;;
66888;Laerm;67239;51.680;5.976;2023-12-14T11:52:44;69.29;43.62;83.16;;
66888;Laerm;67239;51.680;5.976;2023-12-14T11:56:08;70.78;45.25;86.75;;
66888;Laerm;67239;51.680;5.976;2023-12-14T11:59:31;68.61;45.38;82.33;;
66888;Laerm;67239;51.680;5.976;2023-12-14T12:03:24;67.85;43.65;84.55;;
66888;Laerm;67239;51.680;5.976;2023-12-14T12:07:09;68.73;42.02;82.78;;
66888;Laerm;67239;51.680;5.976;2023-12-14T12:09:41;68.81;46.38;79.46;;
66888;Laerm;67239;51.680;5.976;2023-12-14T12:12:10;69.18;44.73;81.83;;
66888;Laerm;67239;51.680;5.976;2023-12-14T12:14:39;71.05;48.09;84.17;;
66888;Laerm;67239;51.680;5.976;2023-12-14T12:17:07;74.15;44.59;90.52;;
66888;Laerm;67239;51.680;5.976;2023-12-14T12:19:36;71.50;52.12;83.07;;
66888;Laerm;67239;51.680;5.976;2023-12-14T12:22:04;66.66;44.95;81.49;;
66888;Laerm;67239;51.680;5.976;2023-12-14T12:24:31;67.45;43.19;78.58;;
66888;Laerm;67239;51.680;5.976;2023-12-14T12:27:01;70.61;49.00;84.45;;
66888;Laerm;67239;51.680;5.976;2023-12-14T12:29:28;67.45;43.74;80.94;;
66888;Laerm;67239;51.680;5.976;2023-12-14T12:31:55;71.71;45.59;85.81;;
66888;Laerm;67239;51.680;5.976;2023-12-14T12:34:23;65.61;39.36;79.64;;
66888;Laerm;67239;51.680;5.976;2023-12-14T12:36:50;72.11;46.75;86.77;;
66888;Laerm;67239;51.680;5.976;2023-12-14T12:39:17;68.40;45.07;82.75;;
66888;Laerm;67239;51.680;5.976;2023-12-14T12:41:44;67.87;47.03;80.08;;
66888;Laerm;67239;51.680;5.976;2023-12-14T12:44:11;69.75;46.85;82.57;;
66888;Laerm;67239;51.680;5.976;2023-12-14T12:46:38;69.68;47.86;82.97;;
66888;Laerm;67239;51.680;5.976;2023-12-14T12:49:05;70.58;44.14;85.43;;
66888;Laerm;67239;51.680;5.976;2023-12-14T12:51:32;69.64;47.53;82.95;;
66888;Laerm;67239;51.680;5.976;2023-12-14T12:54:00;68.46;45.32;79.89;;
66888;Laerm;67239;51.680;5.976;2023-12-14T12:56:39;69.36;42.75;80.98;;
66888;Laerm;67239;51.680;5.976;2023-12-14T12:59:06;67.98;46.90;80.12;;
66888;Laerm;67239;51.680;5.976;2023-12-14T13:01:36;71.70;52.54;84.75;;
66888;Laerm;67239;51.680;5.976;2023-12-14T13:04:04;71.56;50.31;82.11;;
66888;Laerm;67239;51.680;5.976;2023-12-14T13:06:31;69.52;45.60;78.98;;
66888;Laerm;67239;51.680;5.976;2023-12-14T13:08:59;70.16;50.59;80.28;;
66888;Laerm;67239;51.680;5.976;2023-12-14T13:11:26;68.07;44.04;81.09;;
66888;Laerm;67239;51.680;5.976;2023-12-14T13:13:54;69.83;43.27;81.00;;
66888;Laerm;67239;51.680;5.976;2023-12-14T13:16:21;68.08;43.20;79.58;;
66888;Laerm;67239;51.680;5.976;2023-12-14T13:18:48;70.92;45.64;84.70;;
66888;Laerm;67239;51.680;5.976;2023-12-14T13:21:15;70.67;46.88;82.23;;
66888;Laerm;67239;51.680;5.976;2023-12-14T13:23:42;71.21;51.25;82.41;;
66888;Laerm;67239;51.680;5.976;2023-12-14T13:26:10;70.88;46.51;81.96;;
66888;Laerm;67239;51.680;5.976;2023-12-14T13:28:37;69.70;48.44;79.94;;
66888;Laerm;67239;51.680;5.976;2023-12-14T13:31:05;70.31;45.18;82.62;;
66888;Laerm;67239;51.680;5.976;2023-12-14T13:33:33;69.77;46.26;82.97;;
66888;Laerm;67239;51.680;5.976;2023-12-14T13:36:00;71.95;45.95;82.28;;
66888;Laerm;67239;51.680;5.976;2023-12-14T13:38:28;70.55;47.57;81.97;;
66888;Laerm;67239;51.680;5.976;2023-12-14T13:40:55;69.87;46.15;84.27;;
66888;Laerm;67239;51.680;5.976;2023-12-14T13:43:22;65.38;43.98;76.75;;
66888;Laerm;67239;51.680;5.976;2023-12-14T13:45:49;69.78;48.41;82.09;;
66888;Laerm;67239;51.680;5.976;2023-12-14T13:48:40;71.04;50.14;84.93;;
66888;Laerm;67239;51.680;5.976;2023-12-14T13:51:07;68.65;43.46;80.73;;
66888;Laerm;67239;51.680;5.976;2023-12-14T13:53:35;66.23;41.96;79.56;;
66888;Laerm;67239;51.680;5.976;2023-12-14T13:56:02;68.96;45.33;80.07;;
66888;Laerm;67239;51.680;5.976;2023-12-14T13:58:30;68.02;45.68;79.01;;
66888;Laerm;67239;51.680;5.976;2023-12-14T14:00:57;69.91;47.22;81.68;;